Time;durP1;ratioP1;P1;durP2;ratioP2;P2;SDS_P1;SDS_P2;PMS_P1;PMS_P2;Temp;Humidity;BMP_temperature;BMP_pressure;BME280_temperature;BME280_humidity;BME280_pressure;Samples;Min_cycle;Max_cycle;Signal;HPM_P1;HPM_P2
2022/03/17 00:01:40;;;;;;;11.63;5.20;;;20.00;50.50;;;;;;4953643;29;20051;-88
2022/03/17 00:04:05;;;;;;;11.70;5.38;;;19.70;50.40;;;;;;4937034;29;20049;-89
2022/03/17 00:06:41;;;;;;;11.85;5.38;;;19.20;50.30;;;;;;4954030;29;20126;-90
2022/03/17 00:09:07;;;;;;;11.93;5.80;;;18.70;50.20;;;;;;4953778;29;20070;-89
2022/03/17 00:11:42;;;;;;;10.27;4.97;;;18.40;49.70;;;;;;4953025;29;20035;-89
2022/03/17 00:14:13;;;;;;;11.70;4.65;;;17.30;49.40;;;;;;4953807;29;20047;-89
2022/03/17 00:16:39;;;;;;;11.05;5.15;;;18.40;50.60;;;;;;4936233;29;20039;-90
2022/03/17 00:19:13;;;;;;;10.88;4.68;;;18.30;49.90;;;;;;4953235;29;20385;-89
2022/03/17 00:21:39;;;;;;;8.48;4.43;;;18.40;49.70;;;;;;4936257;29;20035;-89
2022/03/17 00:24:08;;;;;;;10.85;4.50;;;19.70;50.40;;;;;;4953814;29;20069;-89
2022/03/17 00:26:34;;;;;;;10.65;4.97;;;18.70;49.80;;;;;;4936348;29;20047;-89
2022/03/17 00:29:09;;;;;;;10.32;4.88;;;19.00;50.00;;;;;;4957251;29;20110;-90
2022/03/17 00:31:43;;;;;;;10.57;4.82;;;19.00;50.50;;;;;;4957247;29;20054;-89
2022/03/17 00:34:09;;;;;;;10.60;4.68;;;18.70;49.80;;;;;;4956744;29;20050;-89
2022/03/17 00:36:46;;;;;;;11.00;4.53;;;19.70;50.60;;;;;;4957569;29;20051;-89
2022/03/17 00:39:15;;;;;;;10.07;4.88;;;18.50;50.40;;;;;;4957364;29;20043;-89
2022/03/17 00:41:41;;;;;;;9.68;4.70;;;19.80;50.60;;;;;;4956556;29;20058;-89
2022/03/17 00:44:14;;;;;;;9.52;4.70;;;20.10;51.30;;;;;;4940149;29;20051;-89
2022/03/17 00:46:46;;;;;;;10.30;4.60;;;20.20;50.70;;;;;;4939816;29;20078;-90
2022/03/17 00:49:12;;;;;;;11.60;4.55;;;19.00;50.90;;;;;;4957021;29;20047;-90
2022/03/17 00:51:50;;;;;;;10.50;4.90;;;17.00;49.10;;;;;;4957412;29;20047;-89
2022/03/17 00:54:16;;;;;;;8.65;3.92;;;18.60;49.80;;;;;;4939344;29;20066;-89
2022/03/17 00:57:07;;;;;;;9.93;4.72;;;19.50;50.50;;;;;;4938357;29;20051;-90
2022/03/17 00:59:33;;;;;;;10.45;4.30;;;18.80;49.90;;;;;;4939712;29;20043;-89
2022/03/17 01:02:01;;;;;;;9.95;4.45;;;18.40;49.70;;;;;;4956515;29;20043;-89
2022/03/17 01:04:27;;;;;;;10.43;4.80;;;18.60;49.90;;;;;;4939845;29;20058;-89
2022/03/17 01:06:52;;;;;;;9.73;4.50;;;18.60;50.00;;;;;;4956879;29;20051;-89
2022/03/17 01:09:29;;;;;;;11.13;4.68;;;18.30;49.70;;;;;;4956959;29;20055;-90
2022/03/17 01:12:03;;;;;;;7.55;3.85;;;19.80;50.60;;;;;;4939407;29;20047;-89
2022/03/17 01:14:29;;;;;;;8.30;4.30;;;17.00;49.20;;;;;;4939755;29;20051;-89
2022/03/17 01:17:03;;;;;;;9.95;4.80;;;18.60;49.90;;;;;;4956028;29;20051;-89
2022/03/17 01:19:29;;;;;;;9.43;4.35;;;18.50;50.00;;;;;;4939397;29;20043;-89
2022/03/17 01:21:56;;;;;;;8.40;3.88;;;19.10;50.10;;;;;;4939468;29;20055;-89
2022/03/17 01:24:41;;;;;;;8.38;3.72;;;18.10;49.70;;;;;;4939838;29;20134;-88
2022/03/17 01:27:20;;;;;;;8.98;4.20;;;18.50;49.80;;;;;;4924937;29;20079;-89
2022/03/17 01:29:52;;;;;;;8.02;4.32;;;20.10;50.70;;;;;;4957882;29;20051;-89
2022/03/17 01:32:18;;;;;;;8.48;3.90;;;19.50;50.30;;;;;;4939328;29;20054;-89
2022/03/17 01:34:52;;;;;;;9.38;4.45;;;19.30;51.10;;;;;;4957471;29;20059;-89
2022/03/17 01:37:18;;;;;;;7.65;3.70;;;20.00;51.00;;;;;;4956725;29;20051;-89
2022/03/17 01:39:43;;;;;;;8.73;4.20;;;20.00;50.70;;;;;;4939510;29;20069;-89
2022/03/17 01:42:09;;;;;;;8.02;4.10;;;18.50;49.80;;;;;;4939727;29;20055;-89
2022/03/17 01:44:35;;;;;;;7.28;3.83;;;18.50;49.80;;;;;;4939158;29;20650;-89
2022/03/17 01:49:46;;;;;;;8.50;3.70;;;18.50;49.80;;;;;;4956328;29;20055;-90
2022/03/17 01:52:11;;;;;;;8.32;3.90;;;18.50;49.80;;;;;;4956692;29;20132;-90
2022/03/17 01:54:37;;;;;;;9.07;4.00;;;18.50;49.80;;;;;;4939699;29;20055;-90
2022/03/17 01:57:03;;;;;;;9.68;4.32;;;18.50;49.80;;;;;;4940697;29;20057;-90
2022/03/17 01:59:30;;;;;;;7.65;3.60;;;18.50;49.90;;;;;;4940503;29;20051;-90
2022/03/17 02:01:56;;;;;;;7.80;3.75;;;18.50;49.90;;;;;;4923752;29;20480;-90
2022/03/17 02:04:22;;;;;;;7.63;3.65;;;18.50;49.80;;;;;;4956578;29;20114;-90
2022/03/17 02:06:48;;;;;;;7.72;3.85;;;18.50;49.90;;;;;;4956680;29;20564;-90
2022/03/17 02:09:14;;;;;;;7.30;3.50;;;18.50;49.80;;;;;;4956713;29;20062;-90
2022/03/17 02:14:24;;;;;;;7.57;3.22;;;18.50;49.80;;;;;;4956237;29;20090;-91
2022/03/17 02:16:52;;;;;;;7.53;3.25;;;18.50;49.90;;;;;;4956271;29;20090;-90
2022/03/17 02:19:21;;;;;;;8.02;4.07;;;18.40;49.80;;;;;;4938802;29;20583;-90
2022/03/17 02:21:48;;;;;;;8.15;3.55;;;18.50;49.90;;;;;;4956626;29;20055;-90
2022/03/17 02:27:03;;;;;;;7.35;3.33;;;18.40;49.80;;;;;;4958977;29;20091;-90
2022/03/17 02:29:35;;;;;;;7.18;3.25;;;18.40;49.90;;;;;;4960681;29;20066;-92
2022/03/17 02:32:28;;;;;;;8.45;3.92;;;18.40;50.30;;;;;;4959998;29;20059;-90
2022/03/17 02:37:59;;;;;;;7.47;3.45;;;18.40;49.80;;;;;;4915988;29;20107;-91
2022/03/17 02:44:20;;;;;;;7.25;2.97;;;17.70;49.50;;;;;;4939968;29;20059;-90
2022/03/17 02:47:00;;;;;;;6.95;3.10;;;18.40;50.30;;;;;;4936506;29;20070;-91
2022/03/17 02:49:34;;;;;;;6.85;3.15;;;19.10;50.50;;;;;;4955444;28;20039;-90
2022/03/17 02:52:07;;;;;;;8.00;4.03;;;16.40;49.40;;;;;;4938613;29;20039;-91
2022/03/17 02:54:33;;;;;;;7.57;3.60;;;18.60;50.30;;;;;;4954660;29;20484;-90
2022/03/17 02:56:59;;;;;;;6.32;2.85;;;18.60;50.50;;;;;;4938168;29;20086;-91
2022/03/17 02:59:27;;;;;;;6.93;3.45;;;19.20;50.90;;;;;;4938762;29;20074;-90
2022/03/17 03:02:33;;;;;;;6.15;3.22;;;17.40;49.90;;;;;;4955113;29;20416;-90
2022/03/17 03:05:14;;;;;;;7.05;2.85;;;17.80;49.60;;;;;;4892341;29;20101;-91
2022/03/17 03:07:45;;;;;;;6.95;3.35;;;18.40;50.00;;;;;;4954847;29;20043;-91
2022/03/17 03:10:29;;;;;;;6.78;3.00;;;19.30;50.80;;;;;;4938274;29;20053;-91
2022/03/17 03:13:06;;;;;;;6.72;2.92;;;18.90;50.50;;;;;;4955203;29;20047;-91
2022/03/17 03:15:42;;;;;;;6.38;3.30;;;19.40;50.80;;;;;;4937721;29;20046;-91
2022/03/17 03:18:07;;;;;;;6.78;3.10;;;19.70;51.60;;;;;;4955407;29;20051;-90
2022/03/17 03:20:47;;;;;;;6.07;3.17;;;18.20;50.40;;;;;;4938281;29;20043;-90
2022/03/17 03:23:13;;;;;;;6.68;3.28;;;16.40;49.10;;;;;;4955088;29;20047;-91
2022/03/17 03:25:50;;;;;;;8.07;3.50;;;18.40;50.20;;;;;;4955257;29;20057;-90
2022/03/17 03:28:16;;;;;;;6.35;3.13;;;19.60;50.80;;;;;;4956040;29;20043;-90
2022/03/17 03:30:41;;;;;;;5.78;2.65;;;18.30;50.00;;;;;;4922030;29;20039;-91
2022/03/17 03:33:07;;;;;;;6.10;3.22;;;18.20;49.90;;;;;;4955799;29;20062;-91
2022/03/17 03:38:24;;;;;;;7.45;3.22;;;18.20;49.90;;;;;;4937477;29;20051;-91
2022/03/17 03:41:10;;;;;;;6.68;3.00;;;19.90;51.70;;;;;;4935739;29;20146;-91
2022/03/17 03:43:45;;;;;;;6.40;2.88;;;18.30;50.00;;;;;;4950426;29;20496;-90
2022/03/17 03:46:19;;;;;;;7.13;3.13;;;18.80;50.30;;;;;;4952896;29;20118;-90
2022/03/17 03:48:45;;;;;;;6.53;3.10;;;19.40;50.70;;;;;;4937752;29;20062;-90
2022/03/17 03:51:19;;;;;;;5.43;2.95;;;18.40;50.00;;;;;;4937448;29;20051;-90
2022/03/17 03:56:47;;;;;;;6.35;3.33;;;17.90;49.80;;;;;;4936399;29;20051;-91
2022/03/17 03:59:26;;;;;;;6.50;3.03;;;18.10;49.80;;;;;;4954737;29;20055;-91
2022/03/17 04:02:04;;;;;;;4.35;2.22;;;18.10;49.80;;;;;;4936221;29;20126;-91
2022/03/17 04:04:30;;;;;;;6.97;3.30;;;18.30;50.10;;;;;;4936823;29;20062;-91
2022/03/17 04:06:58;;;;;;;4.93;2.85;;;18.70;50.30;;;;;;4954246;29;20051;-90
2022/03/17 04:09:26;;;;;;;5.20;2.70;;;17.70;49.60;;;;;;4937625;29;20039;-90
2022/03/17 04:11:52;;;;;;;6.40;3.05;;;18.20;49.90;;;;;;4937516;29;20047;-91
2022/03/17 04:14:18;;;;;;;4.88;2.30;;;18.30;50.00;;;;;;4937594;29;20551;-91
2022/03/17 04:16:46;;;;;;;5.40;2.67;;;18.30;50.10;;;;;;4954012;29;20042;-91
2022/03/17 04:19:21;;;;;;;6.05;2.97;;;18.40;50.10;;;;;;4935775;29;20047;-91
2022/03/17 04:21:47;;;;;;;5.45;2.80;;;19.10;50.60;;;;;;4954133;29;20047;-90
2022/03/17 04:24:13;;;;;;;5.15;2.88;;;18.00;49.80;;;;;;4936956;29;20043;-91
2022/03/17 04:26:45;;;;;;;5.45;2.63;;;18.30;50.10;;;;;;4953179;29;20142;-91
2022/03/17 04:29:28;;;;;;;5.38;2.47;;;19.40;50.60;;;;;;4937329;29;20062;-91
2022/03/17 04:31:53;;;;;;;5.63;2.67;;;18.00;50.00;;;;;;4936306;29;20119;-90
2022/03/17 04:34:20;;;;;;;4.22;2.45;;;18.90;50.60;;;;;;4954033;29;20106;-90
2022/03/17 04:36:45;;;;;;;6.15;2.70;;;19.30;50.70;;;;;;4936795;29;20055;-89
2022/03/17 04:39:11;;;;;;;5.57;2.65;;;19.50;50.80;;;;;;4936317;29;20078;-90
2022/03/17 04:41:37;;;;;;;4.95;2.63;;;18.20;50.00;;;;;;4953674;29;20039;-90
2022/03/17 04:44:02;;;;;;;6.38;2.72;;;19.60;50.80;;;;;;4936956;29;20046;-90
2022/03/17 04:46:28;;;;;;;5.65;2.72;;;18.20;50.00;;;;;;4953732;29;20114;-90
2022/03/17 04:48:54;;;;;;;6.15;3.10;;;18.20;50.10;;;;;;4953873;29;20052;-91
2022/03/17 04:51:19;;;;;;;5.45;2.70;;;18.20;50.40;;;;;;4954030;29;20496;-91
2022/03/17 04:53:51;;;;;;;5.03;2.97;;;18.70;50.40;;;;;;4934818;29;20075;-88
2022/03/17 04:56:23;;;;;;;5.22;2.97;;;17.30;49.80;;;;;;4952785;29;20101;-89
2022/03/17 04:58:48;;;;;;;6.25;2.92;;;19.50;51.00;;;;;;4953047;29;20047;-89
2022/03/17 05:01:14;;;;;;;5.07;2.85;;;18.60;50.30;;;;;;4935578;29;20146;-89
2022/03/17 05:03:40;;;;;;;5.13;2.80;;;18.00;50.00;;;;;;4952926;29;20479;-89
2022/03/17 05:06:13;;;;;;;5.57;3.22;;;18.10;50.70;;;;;;4935782;29;20427;-89
2022/03/17 05:08:38;;;;;;;5.07;2.85;;;19.60;50.80;;;;;;4952158;29;20061;-89
2022/03/17 05:11:04;;;;;;;4.97;2.50;;;18.20;50.00;;;;;;4953306;29;20627;-90
2022/03/17 05:13:30;;;;;;;5.63;2.90;;;18.20;50.00;;;;;;4954258;28;20616;-90
2022/03/17 05:15:55;;;;;;;5.65;2.90;;;18.20;50.00;;;;;;4955945;29;20126;-89
2022/03/17 05:18:21;;;;;;;5.32;2.88;;;18.20;50.00;;;;;;4956766;29;20057;-90
2022/03/17 05:20:46;;;;;;;5.25;2.67;;;18.20;50.10;;;;;;4939212;29;20051;-90
2022/03/17 05:23:13;;;;;;;4.78;2.90;;;18.20;50.10;;;;;;4955943;29;20047;-90
2022/03/17 05:25:42;;;;;;;5.15;2.80;;;18.20;50.10;;;;;;4956535;29;20091;-90
2022/03/17 05:28:10;;;;;;;4.93;2.78;;;18.20;50.10;;;;;;4956291;29;20055;-90
2022/03/17 05:30:39;;;;;;;5.70;3.35;;;19.40;50.70;;;;;;4956601;29;20051;-89
2022/03/17 05:33:06;;;;;;;6.38;3.30;;;18.10;50.10;;;;;;4939278;29;20613;-90
2022/03/17 05:35:34;;;;;;;5.10;3.05;;;18.20;50.10;;;;;;4956148;29;20048;-90
2022/03/17 05:38:03;;;;;;;5.80;3.15;;;18.10;50.10;;;;;;4939074;29;20139;-90
2022/03/17 05:40:28;;;;;;;5.40;3.05;;;18.20;50.10;;;;;;4956969;29;20075;-90
2022/03/17 05:42:56;;;;;;;5.88;3.05;;;18.10;50.10;;;;;;4939202;29;20089;-89
2022/03/17 05:45:26;;;;;;;5.88;3.35;;;18.10;50.10;;;;;;4939474;29;20075;-90
2022/03/17 05:47:56;;;;;;;6.78;3.30;;;19.10;50.60;;;;;;4939194;29;20118;-90
2022/03/17 05:50:27;;;;;;;4.65;2.65;;;18.40;50.30;;;;;;4938082;29;20055;-88
2022/03/17 05:52:53;;;;;;;4.70;2.63;;;18.10;50.10;;;;;;4938844;29;20055;-90
2022/03/17 05:55:20;;;;;;;4.28;2.47;;;18.10;50.10;;;;;;4938985;29;20550;-88
2022/03/17 05:57:47;;;;;;;4.90;2.45;;;18.60;50.50;;;;;;4955641;29;20051;-88
2022/03/17 06:00:14;;;;;;;5.93;2.70;;;18.10;50.20;;;;;;4956352;29;20043;-89
2022/03/17 06:02:40;;;;;;;4.95;2.75;;;18.10;50.20;;;;;;4955916;29;20051;-89
2022/03/17 06:05:06;;;;;;;4.63;2.63;;;18.30;50.30;;;;;;4938244;29;20515;-89
2022/03/17 06:07:42;;;;;;;4.03;2.30;;;18.10;50.20;;;;;;4938090;29;20051;-89
2022/03/17 06:10:13;;;;;;;5.38;2.72;;;18.10;50.20;;;;;;4937850;29;20047;-88
2022/03/17 06:12:39;;;;;;;4.38;2.40;;;18.10;50.20;;;;;;4938177;29;20047;-89
2022/03/17 06:15:07;;;;;;;6.28;3.00;;;18.10;50.20;;;;;;4955973;29;20054;-89
2022/03/17 06:17:48;;;;;;;5.00;2.67;;;18.10;50.20;;;;;;4937586;29;20066;-88
2022/03/17 06:20:18;;;;;;;4.33;2.30;;;18.20;50.30;;;;;;4938393;29;20051;-88
2022/03/17 06:22:45;;;;;;;4.13;2.10;;;18.10;50.20;;;;;;4937952;29;20039;-89
2022/03/17 06:25:13;;;;;;;4.35;2.38;;;18.80;50.60;;;;;;4936699;29;20190;-89
2022/03/17 06:27:41;;;;;;;3.88;2.08;;;18.10;50.30;;;;;;4937872;29;20051;-89
2022/03/17 06:30:09;;;;;;;3.90;1.95;;;18.10;50.30;;;;;;4951240;29;20059;-90
2022/03/17 06:32:35;;;;;;;3.83;2.00;;;18.10;50.30;;;;;;4921282;29;20048;-89
2022/03/17 06:35:01;;;;;;;4.35;1.92;;;18.10;50.40;;;;;;4950525;29;20065;-89
2022/03/17 06:37:26;;;;;;;3.63;1.85;;;17.20;49.80;;;;;;4935789;29;20106;-89
2022/03/17 06:39:53;;;;;;;4.28;2.33;;;18.10;50.30;;;;;;4949513;29;20050;-89
2022/03/17 06:42:20;;;;;;;4.97;2.20;;;18.10;50.30;;;;;;4937464;29;20340;-89
2022/03/17 06:44:46;;;;;;;3.92;2.13;;;18.70;50.60;;;;;;4925956;29;20641;-88
2022/03/17 06:47:11;;;;;;;3.50;1.70;;;18.10;50.30;;;;;;4939676;29;20084;-89
2022/03/17 06:49:37;;;;;;;3.95;1.95;;;18.10;50.30;;;;;;4936904;29;20051;-88
2022/03/17 06:52:03;;;;;;;3.95;1.88;;;18.10;50.40;;;;;;4927574;29;20510;-89
2022/03/17 06:54:28;;;;;;;4.15;1.90;;;18.10;50.30;;;;;;4920826;29;20051;-89
2022/03/17 06:56:56;;;;;;;3.80;2.08;;;18.10;50.30;;;;;;4937488;29;20133;-86
2022/03/17 06:59:22;;;;;;;4.22;1.83;;;18.10;50.30;;;;;;4953027;29;20121;-84
2022/03/17 07:01:48;;;;;;;4.30;2.03;;;18.10;50.30;;;;;;4952816;29;20043;-84
2022/03/17 07:04:13;;;;;;;4.43;1.95;;;18.10;50.30;;;;;;4951119;29;20407;-84
2022/03/17 07:06:39;;;;;;;4.18;2.20;;;18.10;50.30;;;;;;4923643;29;20043;-86
2022/03/17 07:09:04;;;;;;;4.22;2.13;;;18.10;50.30;;;;;;4953797;29;20055;-85
2022/03/17 07:11:30;;;;;;;4.18;1.85;;;19.20;51.00;;;;;;4936505;29;20050;-85
2022/03/17 07:13:55;;;;;;;3.80;1.80;;;18.10;50.40;;;;;;4952900;29;20051;-85
2022/03/17 07:16:21;;;;;;;3.63;1.70;;;18.10;50.40;;;;;;4953537;29;20130;-86
2022/03/17 07:18:46;;;;;;;4.10;1.90;;;18.10;50.40;;;;;;4935781;29;20055;-85
2022/03/17 07:21:13;;;;;;;3.60;1.85;;;19.40;51.10;;;;;;4953096;29;20399;-87
2022/03/17 07:23:38;;;;;;;3.33;1.83;;;18.10;50.40;;;;;;4936419;29;20122;-87
2022/03/17 07:26:04;;;;;;;4.18;2.10;;;18.10;50.40;;;;;;4936155;29;20578;-87
2022/03/17 07:28:29;;;;;;;2.85;1.48;;;18.10;50.40;;;;;;4935423;29;20920;-87
2022/03/17 07:30:55;;;;;;;3.95;1.73;;;18.10;50.50;;;;;;4953748;29;20054;-87
2022/03/17 07:33:21;;;;;;;3.65;1.55;;;18.10;50.50;;;;;;4936885;29;20050;-86
2022/03/17 07:35:46;;;;;;;3.53;1.50;;;19.50;51.20;;;;;;4916167;29;20056;-86
2022/03/17 07:38:12;;;;;;;3.72;1.58;;;18.10;50.50;;;;;;4933978;29;20515;-86
2022/03/17 07:40:37;;;;;;;3.25;1.58;;;18.10;50.50;;;;;;4948729;29;20128;-86
2022/03/17 07:43:04;;;;;;;2.42;1.50;;;19.20;51.00;;;;;;4933035;29;20043;-86
2022/03/17 07:45:30;;;;;;;4.28;1.50;;;18.00;50.40;;;;;;4935597;29;20078;-83
2022/03/17 07:47:55;;;;;;;4.22;1.50;;;18.10;50.50;;;;;;4947394;29;20562;-83
2022/03/17 07:50:24;;;;;;;3.92;1.63;;;19.20;51.00;;;;;;4930259;29;20043;-82
2022/03/17 07:52:50;;;;;;;4.40;1.83;;;18.10;50.60;;;;;;4949402;29;20058;-85
2022/03/17 07:55:17;;;;;;;3.13;1.42;;;19.50;51.40;;;;;;4952255;29;20055;-85
2022/03/17 07:57:42;;;;;;;4.30;1.50;;;18.10;50.60;;;;;;4934738;29;20170;-84
2022/03/17 08:00:11;;;;;;;2.75;1.40;;;18.30;50.80;;;;;;4919969;29;20130;-85
2022/03/17 08:02:37;;;;;;;3.22;1.50;;;18.10;50.70;;;;;;4931172;29;20051;-85
2022/03/17 08:05:09;;;;;;;3.63;1.55;;;18.10;50.70;;;;;;4930001;29;20043;-84
2022/03/17 08:07:34;;;;;;;2.70;1.27;;;18.10;50.70;;;;;;4932541;29;20325;-84
2022/03/17 08:10:02;;;;;;;2.95;1.30;;;18.10;50.70;;;;;;4934342;29;20114;-84
2022/03/17 08:12:28;;;;;;;4.38;1.52;;;18.10;50.70;;;;;;4950051;29;20082;-84
2022/03/17 08:14:53;;;;;;;2.28;1.10;;;18.10;50.70;;;;;;4934762;29;20133;-83
2022/03/17 08:17:19;;;;;;;3.60;1.30;;;18.10;50.70;;;;;;4933430;29;20062;-84
2022/03/17 08:19:48;;;;;;;3.60;1.42;;;18.10;50.80;;;;;;4943351;29;20047;-83
2022/03/17 08:22:13;;;;;;;4.15;1.35;;;18.10;50.70;;;;;;4935536;29;20040;-84
2022/03/17 08:24:39;;;;;;;2.40;1.00;;;18.10;50.70;;;;;;4951681;29;20095;-83
2022/03/17 08:27:08;;;;;;;2.20;1.00;;;18.10;51.40;;;;;;4935782;29;20073;-82
2022/03/17 08:29:33;;;;;;;3.25;1.20;;;19.40;51.30;;;;;;4935016;28;20039;-87
2022/03/17 08:35:45;;;;;;;3.88;1.13;;;18.10;50.60;;;;;;4893338;29;20508;-87
2022/03/17 08:38:37;;;;;;;2.45;1.13;;;18.10;50.90;;;;;;4853636;29;20067;-89
2022/03/17 08:50:44;;;;;;;3.20;1.20;;;19.80;51.50;;;;;;4806431;29;20062;-85
2022/03/17 08:53:13;;;;;;;3.58;1.25;;;17.80;50.20;;;;;;4846410;29;20057;-85
2022/03/17 08:55:39;;;;;;;4.82;1.40;;;18.50;50.70;;;;;;4895535;29;20120;-85
2022/03/17 08:58:05;;;;;;;3.88;0.90;;;18.20;50.40;;;;;;4871289;29;20061;-86
2022/03/17 09:00:34;;;;;;;3.90;1.10;;;18.20;50.50;;;;;;4935757;29;20058;-86
2022/03/17 09:03:09;;;;;;;2.13;0.80;;;18.20;50.40;;;;;;4918844;29;20495;-86
2022/03/17 09:05:35;;;;;;;3.63;1.20;;;18.20;50.40;;;;;;4918866;29;20484;-86
2022/03/17 09:08:03;;;;;;;2.40;0.85;;;18.20;50.40;;;;;;4918748;29;20141;-87
2022/03/17 09:10:29;;;;;;;3.20;0.90;;;18.20;50.40;;;;;;4950697;29;20082;-87
2022/03/17 09:12:57;;;;;;;2.65;0.90;;;19.50;51.10;;;;;;4923604;29;20047;-86
2022/03/17 09:15:23;;;;;;;2.97;0.88;;;18.30;50.50;;;;;;4951146;29;20051;-86
2022/03/17 09:17:48;;;;;;;5.03;1.00;;;18.20;50.30;;;;;;4954800;29;20411;-85
2022/03/17 09:24:12;;;;;;;2.47;0.75;;;18.30;50.50;;;;;;4883660;29;20055;-86
2022/03/17 09:26:53;;;;;;;2.08;0.70;;;18.30;50.40;;;;;;4932960;29;20521;-87
2022/03/17 09:29:47;;;;;;;2.38;0.70;;;18.60;50.50;;;;;;4949336;29;20074;-86
2022/03/17 09:32:20;;;;;;;4.45;0.80;;;18.60;50.50;;;;;;4838066;29;20056;-87
2022/03/17 09:34:59;;;;;;;3.33;1.10;;;18.20;50.60;;;;;;4949716;29;20063;-84
2022/03/17 09:37:30;;;;;;;2.40;0.68;;;18.30;50.30;;;;;;4952664;29;20054;-87
2022/03/17 09:40:14;;;;;;;2.90;0.60;;;18.20;51.10;;;;;;4949533;29;20062;-86
2022/03/17 09:42:43;;;;;;;1.67;0.60;;;17.60;49.90;;;;;;4948871;29;20043;-89
2022/03/17 09:45:10;;;;;;;1.98;0.60;;;18.10;50.40;;;;;;4951006;29;20110;-86
2022/03/17 09:48:21;;;;;;;3.63;0.68;;;18.40;50.40;;;;;;4934441;29;20190;-87
2022/03/17 09:51:25;;;;;;;2.70;0.60;;;18.40;50.30;;;;;;4856756;29;20058;-85
2022/03/17 09:53:56;;;;;;;2.25;0.80;;;18.00;50.10;;;;;;4954503;29;20105;-85
2022/03/17 09:56:23;;;;;;;2.57;0.70;;;18.00;50.50;;;;;;4954009;29;20078;-86
2022/03/17 09:58:56;;;;;;;2.72;0.80;;;19.80;51.70;;;;;;4950473;29;20102;-85
2022/03/17 10:01:22;;;;;;;2.65;0.68;;;19.20;50.70;;;;;;4949580;29;20107;-89
2022/03/17 10:03:48;;;;;;;2.30;0.70;;;19.30;51.00;;;;;;4916593;29;20055;-87
2022/03/17 10:06:16;;;;;;;1.80;0.70;;;18.90;50.90;;;;;;4946609;29;20399;-85
2022/03/17 10:08:48;;;;;;;8.02;0.80;;;18.40;50.30;;;;;;4914427;29;20522;-86
2022/03/17 10:11:44;;;;;;;2.47;0.70;;;18.40;50.60;;;;;;4951872;29;20039;-89
2022/03/17 10:17:43;;;;;;;6.97;0.80;;;18.40;50.40;;;;;;4925316;29;20058;-86
2022/03/17 10:20:28;;;;;;;3.42;0.60;;;17.50;49.80;;;;;;4930669;29;20103;-84
2022/03/17 10:22:57;;;;;;;2.53;0.70;;;18.20;50.40;;;;;;4941864;29;20048;-86
2022/03/17 10:25:24;;;;;;;2.58;0.80;;;18.20;50.40;;;;;;4950774;29;20086;-84
2022/03/17 10:27:50;;;;;;;2.13;0.65;;;18.40;50.60;;;;;;4936379;29;20039;-85
2022/03/17 10:30:30;;;;;;;4.03;0.70;;;18.40;50.40;;;;;;4951420;29;20055;-86
2022/03/17 10:33:01;;;;;;;2.30;0.60;;;18.40;50.50;;;;;;4926596;29;20502;-86
2022/03/17 10:35:34;;;;;;;5.07;0.82;;;18.80;50.70;;;;;;4935087;29;20352;-86
2022/03/17 10:38:18;;;;;;;7.28;0.82;;;18.50;50.50;;;;;;4916604;29;20051;-87
2022/03/17 10:40:58;;;;;;;6.40;1.02;;;18.50;50.40;;;;;;4934812;29;20062;-87
2022/03/17 10:43:24;;;;;;;5.07;0.90;;;18.50;50.40;;;;;;4917797;29;20103;-87
2022/03/17 10:46:13;;;;;;;3.53;0.80;;;19.70;51.00;;;;;;4934140;29;20055;-88
2022/03/17 10:48:51;;;;;;;7.45;0.73;;;19.20;50.70;;;;;;4932951;29;20046;-86
2022/03/17 10:51:34;;;;;;;4.47;0.90;;;18.50;50.20;;;;;;4936285;29;20051;-86
2022/03/17 10:54:03;;;;;;;;;;;18.50;50.40;;;;;;4923084;29;20123;-86
2022/03/17 10:56:33;;;;;;;6.90;1.13;;;18.50;50.50;;;;;;4942060;29;19930;-87
2022/03/17 10:58:59;;;;;;;6.65;0.88;;;18.50;50.60;;;;;;4919216;29;20075;-90
2022/03/17 11:01:42;;;;;;;4.72;0.90;;;18.50;50.60;;;;;;4929797;29;20539;-86
2022/03/17 11:04:08;;;;;;;2.83;0.70;;;18.50;50.50;;;;;;4935344;29;20137;-86
2022/03/17 11:06:34;;;;;;;4.03;0.68;;;18.50;50.60;;;;;;4935250;29;20159;-86
2022/03/17 11:09:40;;;;;;;7.88;1.30;;;19.40;51.20;;;;;;4935538;29;20070;-87
2022/03/17 11:12:38;;;;;;;7.70;1.75;;;17.50;50.00;;;;;;4939173;28;20062;-86
2022/03/17 11:18:35;;;;;;;11.85;3.25;;;18.60;50.60;;;;;;5982745;23;20335;-82
2022/03/17 11:21:55;;;;;;;13.13;4.93;;;18.40;50.60;;;;;;4930095;29;20074;-82
2022/03/17 11:27:19;;;;;;;14.88;5.15;;;18.60;50.80;;;;;;5081829;23;20538;-82
2022/03/17 11:29:46;;;;;;;15.57;5.80;;;18.70;50.90;;;;;;4920110;29;20040;-80
2022/03/17 11:32:31;;;;;;;17.83;5.20;;;18.70;50.80;;;;;;4935500;29;20062;-82
2022/03/17 11:35:19;;;;;;;17.33;5.35;;;18.70;50.90;;;;;;4949545;29;20051;-82
2022/03/17 11:37:45;;;;;;;15.15;4.82;;;18.70;50.80;;;;;;4919294;29;20059;-81
2022/03/17 11:40:13;;;;;;;14.23;4.80;;;18.70;50.80;;;;;;4948655;29;20055;-81
2022/03/17 11:43:16;;;;;;;13.70;4.70;;;18.70;50.90;;;;;;4933125;29;20059;-81
2022/03/17 11:49:41;;;;;;;10.95;3.75;;;18.60;50.80;;;;;;5807916;23;20055;-81
2022/03/17 11:52:41;;;;;;;11.48;3.58;;;19.00;51.00;;;;;;4952631;29;20141;-81
2022/03/17 11:55:48;;;;;;;11.65;4.13;;;18.60;50.80;;;;;;4841963;29;20068;-81
2022/03/17 11:58:31;;;;;;;11.73;3.55;;;18.70;50.90;;;;;;4865785;29;20452;-81
2022/03/17 12:11:52;;;;;;;8.27;2.55;;;18.70;50.90;;;;;;5605970;23;20056;-82
2022/03/17 12:14:58;;;;;;;6.90;1.67;;;18.70;50.70;;;;;;4936165;29;20055;-82
2022/03/17 12:17:47;;;;;;;7.25;2.17;;;18.70;50.30;;;;;;4934424;29;20047;-82
2022/03/17 12:20:45;;;;;;;9.90;2.17;;;18.70;50.50;;;;;;4934549;29;20142;-81
2022/03/17 12:23:45;;;;;;;6.55;1.52;;;18.30;50.00;;;;;;4933596;29;20043;-81
2022/03/17 12:26:23;;;;;;;7.18;2.10;;;17.50;49.50;;;;;;4933958;29;20475;-81
2022/03/17 12:28:48;;;;;;;7.82;1.80;;;18.70;50.70;;;;;;4922298;29;20511;-82
2022/03/17 12:31:45;;;;;;;8.05;1.98;;;18.70;50.90;;;;;;4925565;29;20138;-82
2022/03/17 12:34:14;;;;;;;7.30;2.47;;;18.80;50.20;;;;;;4921236;29;20440;-82
2022/03/17 12:37:33;;;;;;;7.00;1.88;;;18.70;50.60;;;;;;4910886;29;20139;-81
2022/03/17 13:03:17;;;;;;;22.33;8.35;;;18.90;49.90;;;;;;3281720;26;20141;-83
2022/03/17 13:20:37;;;;;;;145.70;46.20;;;18.70;50.10;;;;;;4806633;29;20054;-82
2022/03/17 13:32:17;;;;;;;150.80;48.28;;;18.90;50.10;;;;;;4927595;29;20055;-83
2022/03/17 13:34:59;;;;;;;140.82;44.33;;;19.00;50.50;;;;;;4922520;29;20095;-83
2022/03/17 13:37:34;;;;;;;;;;;18.90;50.10;;;;;;4900680;29;20100;-83
2022/03/17 13:40:18;;;;;;;101.72;32.40;;;18.90;49.60;;;;;;4917120;29;20065;-83
2022/03/17 13:42:59;;;;;;;72.35;20.92;;;18.90;49.20;;;;;;4933534;23;20044;-83
2022/03/17 13:45:53;;;;;;;37.72;12.88;;;18.90;48.80;;;;;;4937591;29;20567;-80
2022/03/17 13:48:29;;;;;;;59.92;20.02;;;18.90;48.00;;;;;;4936947;29;20047;-82
2022/03/17 13:50:59;;;;;;;50.03;16.80;;;18.90;48.20;;;;;;4937594;29;20062;-79
2022/03/17 13:53:34;;;;;;;55.03;18.25;;;18.90;48.00;;;;;;4921352;29;20047;-80
2022/03/17 13:56:03;;;;;;;41.70;13.50;;;18.90;48.50;;;;;;4945847;29;20130;-80
2022/03/17 13:58:43;;;;;;;41.25;13.73;;;18.90;48.60;;;;;;4941952;29;20487;-80
2022/03/17 14:01:20;;;;;;;52.45;15.65;;;18.90;48.80;;;;;;4946797;29;20051;-80
2022/03/17 14:03:51;;;;;;;38.60;14.18;;;18.90;48.90;;;;;;4949249;28;20047;-80
2022/03/17 14:06:28;;;;;;;43.50;13.63;;;19.00;48.90;;;;;;4954586;29;20086;-80
2022/03/17 14:09:07;;;;;;;42.17;13.35;;;20.20;49.50;;;;;;4929283;29;20208;-81
2022/03/17 14:11:33;;;;;;;37.65;12.30;;;19.00;48.90;;;;;;4951092;29;20082;-80
2022/03/17 14:14:03;;;;;;;34.13;11.23;;;19.00;48.90;;;;;;4953750;29;20045;-80
2022/03/17 14:16:30;;;;;;;25.90;10.32;;;19.10;49.10;;;;;;4952396;29;20131;-80
2022/03/17 14:18:56;;;;;;;38.40;12.80;;;19.00;49.00;;;;;;4930189;29;20059;-81
2022/03/17 14:21:23;;;;;;;27.15;10.80;;;19.10;49.10;;;;;;4949268;29;20050;-79
2022/03/17 14:26:34;;;;;;;63.97;20.20;;;19.10;49.20;;;;;;4954111;29;20047;-79
2022/03/17 14:29:04;;;;;;;84.05;27.80;;;19.10;49.30;;;;;;4953535;29;20102;-80
2022/03/17 14:31:31;;;;;;;98.50;33.33;;;19.20;49.30;;;;;;4953060;29;20618;-80
2022/03/17 14:34:06;;;;;;;105.65;34.95;;;20.00;49.80;;;;;;4949601;29;20146;-82
2022/03/17 14:36:55;;;;;;;58.22;20.17;;;19.00;50.10;;;;;;4934403;29;20058;-84
2022/03/17 14:39:20;;;;;;;68.97;23.05;;;19.80;49.50;;;;;;4935276;29;20063;-84
2022/03/17 14:42:27;;;;;;;86.68;26.77;;;19.10;49.20;;;;;;4937021;29;20062;-82
2022/03/17 14:44:55;;;;;;;67.78;25.00;;;18.60;48.90;;;;;;4953327;29;20051;-82
2022/03/17 14:47:27;;;;;;;65.78;22.80;;;18.80;49.30;;;;;;4935949;29;20058;-83
2022/03/17 14:49:56;;;;;;;76.15;25.33;;;19.30;49.50;;;;;;4954114;29;20447;-82
2022/03/17 14:52:21;;;;;;;72.50;24.08;;;18.20;48.80;;;;;;4935972;29;20051;-82
2022/03/17 14:54:56;;;;;;;67.07;22.98;;;19.90;49.60;;;;;;4936601;29;20057;-83
2022/03/17 14:57:21;;;;;;;60.50;21.50;;;20.00;49.70;;;;;;4936390;29;20692;-83
2022/03/17 14:59:47;;;;;;;65.38;21.63;;;19.30;49.90;;;;;;5043529;23;20107;-82